This is the latest recevied weather packets stored in our database for station/object KF7PIZ. If no packets are shown the sender has not sent any weather packets the latest 10 day(s).
| Time | Temp. | Humidity | Pressure | Rain* | Wind** | Luminosity | Snow |
|---|---|---|---|---|---|---|---|
| 1776970784 | 16.67° C | 38% | 1020.3 hPa | 0 mm | - | 616 W/m² | - |
| 1776970482 | 16.67° C | 39% | 1020.2 hPa | 0 mm | - | 622 W/m² | - |
| 1776970178 | 15.56° C | 38% | 1020.4 hPa | 0 mm | - | 632 W/m² | - |
| 1776969874 | 14.44° C | 43% | 1020.3 hPa | 0 mm | - | 655 W/m² | - |
| 1776969572 | 13.89° C | 40% | 1020.5 hPa | 0 mm | - | 677 W/m² | - |
| 1776969268 | 15° C | 38% | 1020.4 hPa | 0 mm | - | 687 W/m² | - |
| 1776968965 | 14.44° C | 48% | 1020.5 hPa | 0 mm | - | 721 W/m² | - |
| 1776968663 | 13.33° C | 44% | 1020.5 hPa | 0 mm | - | 753 W/m² | - |
| 1776968359 | 12.78° C | 43% | 1020.5 hPa | 0 mm | - | 757 W/m² | - |
| 1776968056 | 13.33° C | 41% | 1020.7 hPa | 0 mm | - | 729 W/m² | - |
| 1776967753 | 13.33° C | 42% | 1020.7 hPa | 0 mm | - | 718 W/m² | - |
| 1776967449 | 12.78° C | 43% | 1020.5 hPa | 0 mm | - | 750 W/m² | - |
| 1776967147 | 12.22° C | 44% | 1020.6 hPa | 0 mm | - | 702 W/m² | - |
| 1776966843 | 12.22° C | 47% | 1020.9 hPa | 0 mm | - | 732 W/m² | - |
| 1776966539 | 12.22° C | 47% | 1020.7 hPa | 0 mm | - | 775 W/m² | - |
| 1776966235 | 13.89° C | 42% | 1021 hPa | 0 mm | - | 709 W/m² | - |
| 1776965930 | 12.22° C | 47% | 1021 hPa | 0 mm | - | 612 W/m² | - |
| 1776965628 | 11.67° C | 46% | 1021 hPa | 0 mm | - | 591 W/m² | - |
| 1776965326 | 11.67° C | 48% | 1021 hPa | 0 mm | - | 629 W/m² | - |
| 1776965024 | 12.22° C | 47% | 1021.3 hPa | 0 mm | - | 688 W/m² | - |
| 1776964723 | 13.33° C | 42% | 1021.2 hPa | 0 mm | - | 721 W/m² | - |
| 1776964423 | 11.67° C | 43% | 1021.3 hPa | 0 mm | - | 733 W/m² | - |
| 1776964122 | 11.11° C | 50% | 1021.2 hPa | 0 mm | - | 681 W/m² | - |
| 1776963822 | 10.56° C | 53% | 1021.1 hPa | 0 mm | - | 658 W/m² | - |
| 1776963521 | 11.67° C | 48% | 1021.5 hPa | 0 mm | - | 630 W/m² | - |
* Rain latest hour (hover to see other rain measurements)
** Current wind speed in m/s (hover to see current wind gust speed)